Time;durP1;ratioP1;P1;durP2;ratioP2;P2;SDS_P1;SDS_P2;PMS_P1;PMS_P2;Temp;Humidity;BMP_temperature;BMP_pressure;BME280_temperature;BME280_humidity;BME280_pressure;Samples;Min_cycle;Max_cycle;Signal;HPM_P1;HPM_P2
2023/04/05 00:01:00;;;;;;;9.30;5.38;;;-1.80;99.90;;;;;;5026282;28;20044;-44
2023/04/05 00:03:25;;;;;;;11.70;5.72;;;-1.70;99.90;;;;;;5025321;28;20503;-45
2023/04/05 00:05:53;;;;;;;14.25;5.93;;;-1.60;99.90;;;;;;5025399;28;20047;-46
2023/04/05 00:08:22;;;;;;;11.48;5.22;;;-1.80;99.90;;;;;;5023196;28;20527;-44
2023/04/05 00:10:49;;;;;;;16.20;8.10;;;-1.70;99.90;;;;;;5025682;28;20677;-46
2023/04/05 00:13:15;;;;;;;10.70;5.10;;;-1.70;99.90;;;;;;5025910;28;20053;-45
2023/04/05 00:15:41;;;;;;;11.10;5.25;;;-1.60;99.90;;;;;;5025957;28;20033;-46
2023/04/05 00:18:07;;;;;;;12.23;5.68;;;-1.70;99.90;;;;;;5025614;28;20542;-46
2023/04/05 00:20:36;;;;;;;12.25;5.00;;;-1.80;99.90;;;;;;5024905;28;20577;-45
2023/04/05 00:23:01;;;;;;;12.23;5.68;;;-1.80;99.90;;;;;;5036285;28;20423;-45
2023/04/05 00:25:27;;;;;;;12.98;5.53;;;-1.60;99.90;;;;;;5024925;28;20049;-45
2023/04/05 00:27:53;;;;;;;9.00;4.90;;;-1.80;99.90;;;;;;5025404;28;20698;-44
2023/04/05 00:30:22;;;;;;;9.93;4.75;;;-1.50;99.90;;;;;;5022938;28;20815;-46
2023/04/05 00:32:51;;;;;;;9.85;4.90;;;-1.80;99.90;;;;;;5023534;28;20049;-46
2023/04/05 00:35:17;;;;;;;11.50;4.75;;;;;;;;;;5025439;28;20063;-44
2023/04/05 00:37:43;;;;;;;12.85;6.03;;;-2.10;99.90;;;;;;5025534;28;20052;-49
2023/04/05 00:40:09;;;;;;;10.27;5.30;;;-2.10;99.90;;;;;;5025164;28;20045;-44
2023/04/05 00:42:35;;;;;;;10.43;4.65;;;-2.10;99.90;;;;;;5025464;28;20057;-45
2023/04/05 00:45:00;;;;;;;14.80;6.50;;;-2.20;99.90;;;;;;5025249;28;20099;-45
2023/04/05 00:47:26;;;;;;;12.75;5.85;;;-2.20;99.90;;;;;;5023883;28;20624;-46
2023/04/05 00:49:52;;;;;;;14.27;5.28;;;-2.20;99.90;;;;;;5025521;28;20845;-45
2023/04/05 00:52:22;;;;;;;13.50;5.47;;;-2.30;99.90;;;;;;5025692;28;20041;-47
2023/04/05 00:54:50;;;;;;;14.10;6.00;;;-2.30;99.90;;;;;;5025567;28;20116;-45
2023/04/05 00:57:17;;;;;;;10.02;5.85;;;-2.30;99.90;;;;;;5021498;28;20046;-45
2023/04/05 00:59:42;;;;;;;9.65;4.55;;;-2.30;99.90;;;;;;5025401;28;20102;-46
2023/04/05 01:02:19;;;;;;;7.93;4.63;;;-2.40;99.90;;;;;;5021409;28;20046;-45
2023/04/05 01:04:52;;;;;;;12.55;4.97;;;-0.80;99.90;;;;;;5023711;28;20072;-45
2023/04/05 01:07:36;;;;;;;14.43;5.28;;;-3.80;99.90;;;;;;5025104;28;20052;-46
2023/04/05 01:10:04;;;;;;;9.10;4.72;;;-2.40;99.90;;;;;;5025280;28;20037;-45
2023/04/05 01:12:32;;;;;;;9.45;4.20;;;-2.40;99.90;;;;;;5022891;28;20053;-44
2023/04/05 01:14:58;;;;;;;6.85;3.85;;;-2.40;99.90;;;;;;5021768;28;20049;-45
2023/04/05 01:17:27;;;;;;;10.15;5.05;;;-2.40;99.90;;;;;;5025819;28;20049;-45
2023/04/05 01:19:58;;;;;;;10.00;4.35;;;-2.50;99.90;;;;;;5025586;28;20033;-45
2023/04/05 01:23:01;;;;;;;11.35;4.97;;;-2.50;99.90;;;;;;5025818;28;20049;-45
2023/04/05 01:25:58;;;;;;;9.65;4.57;;;-2.50;99.90;;;;;;5020900;28;20488;-45
2023/04/05 01:28:51;;;;;;;11.80;5.18;;;-2.50;99.90;;;;;;5022995;28;20176;-45
2023/04/05 01:31:49;;;;;;;12.35;5.78;;;-2.60;99.90;;;;;;5021169;28;20044;-45
2023/04/05 01:34:35;;;;;;;11.15;5.75;;;-2.60;99.90;;;;;;5014616;28;20102;-46
2023/04/05 01:37:06;;;;;;;18.65;6.85;;;-2.70;99.90;;;;;;5024850;28;20636;-44
2023/04/05 01:39:34;;;;;;;13.80;7.15;;;-2.50;99.90;;;;;;5025391;28;20049;-47
2023/04/05 01:42:00;;;;;;;13.15;6.13;;;-2.70;99.90;;;;;;5021957;28;20045;-45
2023/04/05 01:44:27;;;;;;;12.13;5.53;;;-2.70;99.90;;;;;;5024733;28;20042;-45
2023/04/05 01:46:52;;;;;;;14.88;6.13;;;-2.70;99.90;;;;;;5025127;28;20076;-46
2023/04/05 01:49:19;;;;;;;12.35;5.32;;;-2.40;99.90;;;;;;5025154;28;20534;-46
2023/04/05 01:51:45;;;;;;;11.48;5.88;;;-2.80;99.90;;;;;;5023450;28;20575;-44
2023/04/05 01:54:10;;;;;;;12.07;5.47;;;-3.30;99.90;;;;;;5019584;28;20042;-46
2023/04/05 01:56:36;;;;;;;10.98;6.13;;;-2.80;99.90;;;;;;5023572;28;20080;-45
2023/04/05 01:59:02;;;;;;;14.43;6.18;;;-2.80;99.90;;;;;;5024494;28;20164;-45
2023/04/05 02:01:27;;;;;;;13.82;6.47;;;-2.80;99.90;;;;;;5023026;28;20644;-45
2023/04/05 02:03:53;;;;;;;16.23;7.25;;;-2.90;99.90;;;;;;5023158;28;20042;-44
2023/04/05 02:06:19;;;;;;;12.35;5.95;;;-2.50;99.90;;;;;;5024404;28;20124;-45
2023/04/05 02:08:44;;;;;;;13.00;6.55;;;-2.90;99.90;;;;;;5026905;28;20045;-46
2023/04/05 02:11:10;;;;;;;12.68;6.50;;;-2.90;99.90;;;;;;5022284;28;20136;-45
2023/04/05 02:13:36;;;;;;;13.73;5.95;;;-2.90;99.90;;;;;;5028552;28;20049;-45
2023/04/05 02:16:01;;;;;;;12.45;6.00;;;-2.90;99.90;;;;;;5029009;28;20046;-46
2023/04/05 02:18:30;;;;;;;17.15;6.68;;;-2.90;99.90;;;;;;5027956;28;20095;-46
2023/04/05 02:21:07;;;;;;;15.90;7.18;;;-2.90;99.90;;;;;;5026034;28;20077;-45
2023/04/05 02:23:33;;;;;;;15.02;8.25;;;-3.10;99.90;;;;;;5027840;28;20048;-45
2023/04/05 02:26:00;;;;;;;16.25;7.55;;;-3.00;99.90;;;;;;5027416;28;20053;-44
2023/04/05 02:28:26;;;;;;;15.73;7.70;;;-2.90;99.90;;;;;;5026238;28;20476;-45
2023/04/05 02:30:51;;;;;;;16.42;7.28;;;-3.00;99.90;;;;;;5028107;28;20048;-44
2023/04/05 02:33:17;;;;;;;16.02;7.50;;;-3.00;99.90;;;;;;5026241;28;20083;-45
2023/04/05 02:35:43;;;;;;;19.83;8.52;;;-2.90;99.90;;;;;;5026635;28;20044;-47
2023/04/05 02:38:09;;;;;;;20.33;8.27;;;-3.00;99.90;;;;;;5027818;28;20049;-44
2023/04/05 02:40:35;;;;;;;16.13;7.28;;;-3.10;99.90;;;;;;5026460;28;20041;-46
2023/04/05 02:43:01;;;;;;;13.10;6.40;;;-3.10;99.90;;;;;;5028018;28;20037;-45
2023/04/05 02:45:27;;;;;;;16.65;8.02;;;-3.10;99.90;;;;;;5027938;28;20487;-44
2023/04/05 02:47:54;;;;;;;18.05;7.68;;;-3.20;99.90;;;;;;5026105;28;20079;-44
2023/04/05 02:50:19;;;;;;;13.93;6.63;;;-3.20;99.90;;;;;;5028062;28;20050;-45
2023/04/05 02:52:49;;;;;;;13.77;5.57;;;-3.20;99.90;;;;;;5026627;28;20056;-45
2023/04/05 02:55:15;;;;;;;12.40;6.13;;;-3.30;99.90;;;;;;5026401;28;20582;-44
2023/04/05 02:57:43;;;;;;;12.93;6.03;;;-3.20;99.90;;;;;;5028090;28;20379;-44
2023/04/05 03:00:10;;;;;;;10.43;5.97;;;-3.30;99.90;;;;;;5027375;28;20552;-45
2023/04/05 03:02:37;;;;;;;14.32;5.63;;;-3.30;99.90;;;;;;5022323;28;20532;-44
2023/04/05 03:05:03;;;;;;;15.02;6.03;;;-3.40;99.90;;;;;;5023557;28;20042;-45
2023/04/05 03:07:29;;;;;;;18.52;7.55;;;-3.40;99.90;;;;;;5027655;28;20533;-46
2023/04/05 03:09:55;;;;;;;16.88;8.30;;;-3.40;99.90;;;;;;5027489;28;20048;-45
2023/04/05 03:12:21;;;;;;;17.63;7.18;;;-3.40;99.90;;;;;;5027167;28;20046;-45
2023/04/05 03:14:47;;;;;;;13.85;7.10;;;-3.40;99.90;;;;;;5025717;28;20042;-44
2023/04/05 03:17:13;;;;;;;15.38;7.43;;;-3.30;99.90;;;;;;5026854;28;20116;-44
2023/04/05 03:19:39;;;;;;;16.20;7.53;;;-3.50;99.90;;;;;;5026504;28;20041;-45
2023/04/05 03:22:04;;;;;;;18.75;7.93;;;-2.50;99.90;;;;;;5027585;28;20144;-44
2023/04/05 03:24:30;;;;;;;13.30;6.45;;;-3.40;99.90;;;;;;5027139;28;20076;-44
2023/04/05 03:27:01;;;;;;;10.63;4.82;;;-3.40;99.90;;;;;;5026102;28;20219;-45
2023/04/05 03:29:26;;;;;;;13.02;5.55;;;-3.50;99.90;;;;;;5024594;28;20456;-44
2023/04/05 03:31:52;;;;;;;13.95;6.68;;;-3.50;99.90;;;;;;5027025;28;20114;-44
2023/04/05 03:34:18;;;;;;;12.13;6.18;;;-3.50;99.90;;;;;;5026649;28;20049;-44
2023/04/05 03:36:44;;;;;;;17.00;6.82;;;-4.10;99.90;;;;;;5022998;28;20076;-44
2023/04/05 03:39:13;;;;;;;13.98;7.32;;;-3.50;99.90;;;;;;5025455;28;20133;-45
2023/04/05 03:41:39;;;;;;;13.68;6.13;;;-3.60;99.90;;;;;;5020031;28;20080;-44
2023/04/05 03:44:05;;;;;;;9.43;3.92;;;-3.60;99.90;;;;;;5026921;28;20379;-46
2023/04/05 03:46:31;;;;;;;15.63;6.40;;;-3.60;99.90;;;;;;5026590;28;20053;-44
2023/04/05 03:48:58;;;;;;;13.32;6.15;;;-2.30;99.90;;;;;;5026732;28;20053;-45
2023/04/05 03:51:24;;;;;;;13.70;5.57;;;-3.60;99.90;;;;;;5026440;28;20179;-45
2023/04/05 03:53:50;;;;;;;15.43;6.43;;;-3.60;99.90;;;;;;5025359;28;20195;-45
2023/04/05 03:56:16;;;;;;;16.73;7.35;;;-3.60;99.90;;;;;;5024799;28;20045;-46
2023/04/05 03:58:43;;;;;;;14.48;7.05;;;-3.80;99.90;;;;;;5026532;28;20049;-45
2023/04/05 04:01:09;;;;;;;15.55;7.03;;;-3.70;99.90;;;;;;5026686;28;20085;-44
2023/04/05 04:03:38;;;;;;;14.70;7.97;;;-3.70;99.90;;;;;;5025599;28;20049;-46
2023/04/05 04:06:05;;;;;;;21.55;7.95;;;-3.70;99.90;;;;;;5026566;28;20053;-44
2023/04/05 04:08:31;;;;;;;17.33;8.73;;;-3.70;99.90;;;;;;5023373;28;20081;-45
2023/04/05 04:10:57;;;;;;;23.00;8.95;;;-3.80;99.90;;;;;;5026728;28;20080;-48
2023/04/05 04:13:23;;;;;;;22.35;9.52;;;-3.80;99.90;;;;;;5026592;28;20793;-44
2023/04/05 04:15:49;;;;;;;21.50;9.02;;;-3.80;99.90;;;;;;5026524;28;20048;-44
2023/04/05 04:18:15;;;;;;;24.88;9.95;;;-3.90;99.90;;;;;;5025867;28;20484;-45
2023/04/05 04:20:41;;;;;;;18.27;9.05;;;-4.00;99.90;;;;;;5023337;28;20092;-45
2023/04/05 04:23:08;;;;;;;19.52;8.85;;;-3.60;99.90;;;;;;5023746;28;20502;-45
2023/04/05 04:25:35;;;;;;;18.33;7.60;;;-3.90;99.90;;;;;;5024478;28;20801;-44
2023/04/05 04:28:08;;;;;;;17.35;7.70;;;-3.90;99.90;;;;;;5025484;28;20495;-45
2023/04/05 04:30:34;;;;;;;18.63;8.02;;;-3.90;99.90;;;;;;5025508;28;20520;-45
2023/04/05 04:33:03;;;;;;;18.75;8.20;;;-3.80;99.90;;;;;;5024430;28;20585;-44
2023/04/05 04:35:32;;;;;;;20.20;8.38;;;-3.90;99.90;;;;;;5026722;28;20064;-44
2023/04/05 04:38:03;;;;;;;19.73;8.20;;;-3.90;99.90;;;;;;5024402;28;20064;-44
2023/04/05 04:40:39;;;;;;;16.58;6.30;;;-3.90;99.90;;;;;;5023130;28;20053;-45
2023/04/05 04:43:16;;;;;;;14.93;6.32;;;-3.80;99.90;;;;;;5025589;28;20394;-44
2023/04/05 04:45:48;;;;;;;13.85;5.88;;;-3.90;99.90;;;;;;5025209;28;20044;-44
2023/04/05 04:48:18;;;;;;;18.23;6.70;;;-3.90;99.90;;;;;;5024238;28;20607;-45
2023/04/05 04:50:48;;;;;;;10.82;4.68;;;-3.10;99.90;;;;;;5023534;28;20542;-44
2023/04/05 04:53:16;;;;;;;13.93;6.60;;;-3.80;99.90;;;;;;5025749;28;20080;-45
2023/04/05 04:55:42;;;;;;;15.73;6.25;;;-3.60;99.90;;;;;;5024513;28;20103;-45
2023/04/05 04:58:09;;;;;;;17.92;6.38;;;-3.60;99.90;;;;;;5025342;28;20045;-44
2023/04/05 05:00:38;;;;;;;21.83;7.80;;;-3.40;99.90;;;;;;5025197;28;20478;-45
2023/04/05 05:03:05;;;;;;;22.05;9.50;;;-3.30;99.90;;;;;;5021377;28;20045;-44
2023/04/05 05:05:30;;;;;;;25.73;10.15;;;-3.40;99.90;;;;;;5023627;28;20049;-44
2023/04/05 05:07:56;;;;;;;24.15;9.77;;;-3.20;99.90;;;;;;5025372;28;20060;-44
2023/04/05 05:10:21;;;;;;;26.88;10.02;;;-3.10;99.90;;;;;;5025322;28;20064;-45
2023/04/05 05:12:47;;;;;;;25.42;11.52;;;-3.20;99.90;;;;;;5025420;28;20076;-44
2023/04/05 05:15:13;;;;;;;24.17;11.15;;;-3.10;99.90;;;;;;5025195;28;20115;-43
2023/04/05 05:17:39;;;;;;;27.45;11.77;;;-3.10;99.90;;;;;;5023274;28;20052;-44
2023/04/05 05:20:09;;;;;;;26.05;11.32;;;-2.90;99.90;;;;;;5024156;28;20037;-44
2023/04/05 05:22:36;;;;;;;26.05;10.80;;;-2.80;99.90;;;;;;5024916;28;20045;-44
2023/04/05 05:25:06;;;;;;;28.90;11.65;;;-2.60;99.90;;;;;;5023680;28;20037;-45
2023/04/05 05:27:35;;;;;;;30.20;11.88;;;-2.20;99.90;;;;;;5024851;28;20048;-44
2023/04/05 05:30:00;;;;;;;28.92;13.52;;;-1.90;99.90;;;;;;5024479;28;20033;-46
2023/04/05 05:32:26;;;;;;;29.02;14.43;;;-1.50;99.90;;;;;;5021339;28;20053;-45
2023/04/05 05:34:52;;;;;;;32.72;14.23;;;-1.30;99.90;;;;;;5023112;28;20124;-45
2023/04/05 05:37:18;;;;;;;31.45;15.35;;;-1.00;99.90;;;;;;5024692;28;20046;-45
2023/04/05 05:39:43;;;;;;;32.75;17.10;;;-0.90;99.90;;;;;;5024017;28;20071;-46
2023/04/05 05:42:10;;;;;;;33.78;16.20;;;-0.50;99.90;;;;;;5025042;28;20056;-47
2023/04/05 05:44:35;;;;;;;30.52;15.82;;;-0.30;99.90;;;;;;5028627;28;20153;-46
2023/04/05 05:47:02;;;;;;;29.95;16.40;;;0.10;99.90;;;;;;5027504;28;20120;-44
2023/04/05 05:49:27;;;;;;;33.88;16.38;;;0.50;99.90;;;;;;5028855;28;20092;-46
2023/04/05 05:51:53;;;;;;;30.20;16.63;;;0.90;99.90;;;;;;5028454;28;20081;-45
2023/04/05 05:54:19;;;;;;;28.63;15.98;;;1.30;99.90;;;;;;5027215;28;20041;-44
2023/04/05 05:56:45;;;;;;;29.75;15.52;;;1.80;99.90;;;;;;5029006;28;20049;-46
2023/04/05 05:59:10;;;;;;;25.10;14.95;;;1.70;99.90;;;;;;5025001;28;20041;-46
2023/04/05 06:01:37;;;;;;;24.88;14.77;;;2.50;99.90;;;;;;5027539;28;20534;-46
2023/04/05 06:04:05;;;;;;;22.40;14.80;;;3.30;99.90;;;;;;5024704;28;20045;-46
2023/04/05 06:06:34;;;;;;;21.38;14.05;;;4.80;99.90;;;;;;5022006;28;20159;-46
2023/04/05 06:08:59;;;;;;;20.33;12.27;;;4.80;99.90;;;;;;5018298;28;20045;-46
2023/04/05 06:11:25;;;;;;;17.98;11.27;;;5.50;99.90;;;;;;5020453;28;20117;-45
2023/04/05 06:13:51;;;;;;;15.60;10.60;;;6.30;99.90;;;;;;5021236;28;20059;-46
2023/04/05 06:16:17;;;;;;;15.60;9.77;;;7.30;99.90;;;;;;5020989;28;20037;-48
2023/04/05 06:18:43;;;;;;;17.17;9.75;;;8.30;99.90;;;;;;5026424;28;20041;-46
2023/04/05 06:21:09;;;;;;;11.82;7.65;;;8.70;99.90;;;;;;5027376;28;20749;-46
2023/04/05 06:23:35;;;;;;;19.13;8.27;;;8.70;99.90;;;;;;5026318;28;20054;-46
2023/04/05 06:26:01;;;;;;;12.82;7.15;;;9.00;99.90;;;;;;5024749;28;20048;-47
2023/04/05 06:28:27;;;;;;;11.82;7.88;;;10.40;98.30;;;;;;5024491;28;20056;-46
2023/04/05 06:30:56;;;;;;;12.73;7.03;;;10.50;96.30;;;;;;5028101;28;20041;-45
2023/04/05 06:33:22;;;;;;;13.98;7.30;;;11.00;94.70;;;;;;5025882;28;20056;-46
2023/04/05 06:35:48;;;;;;;15.32;7.78;;;11.60;93.20;;;;;;5025398;28;20065;-48
2023/04/05 06:38:14;;;;;;;14.15;7.38;;;11.60;92.00;;;;;;5026369;28;20034;-46
2023/04/05 06:40:40;;;;;;;11.98;7.50;;;12.10;91.30;;;;;;5025248;28;20609;-47
2023/04/05 06:43:06;;;;;;;9.40;6.88;;;12.40;90.00;;;;;;5027149;28;20119;-49
2023/04/05 06:45:32;;;;;;;9.63;7.03;;;12.10;88.10;;;;;;5027230;28;20053;-46
2023/04/05 06:47:57;;;;;;;11.43;6.90;;;11.20;87.30;;;;;;5027479;28;20387;-46
2023/04/05 06:50:23;;;;;;;13.48;6.38;;;10.30;87.80;;;;;;5027472;28;20529;-46
2023/04/05 06:52:49;;;;;;;12.20;6.70;;;9.50;89.50;;;;;;5027383;28;20045;-46
2023/04/05 06:55:15;;;;;;;11.38;7.32;;;9.00;89.00;;;;;;5023146;28;20192;-46
2023/04/05 06:57:40;;;;;;;14.57;8.63;;;8.20;90.20;;;;;;5025568;28;20056;-46
2023/04/05 07:00:11;;;;;;;13.15;7.10;;;7.60;90.70;;;;;;5027466;28;20072;-46
2023/04/05 07:02:38;;;;;;;12.27;6.60;;;7.10;91.00;;;;;;5025905;28;20118;-45
2023/04/05 07:05:04;;;;;;;10.13;6.85;;;7.40;91.80;;;;;;5032702;28;20072;-50
2023/04/05 07:07:37;;;;;;;14.35;7.82;;;4.70;91.50;;;;;;5025967;28;20056;-49
2023/04/05 07:10:02;;;;;;;;;;;5.80;92.80;;;;;;5026752;28;20452;-47
2023/04/05 07:12:28;;;;;;;9.23;7.18;;;5.90;92.50;;;;;;5022846;28;19975;-49
2023/04/05 07:14:54;;;;;;;9.48;6.90;;;5.70;93.40;;;;;;5024126;28;20068;-45
2023/04/05 07:17:20;;;;;;;12.13;7.22;;;5.80;97.00;;;;;;5023552;28;20042;-46
2023/04/05 07:19:46;;;;;;;12.23;7.30;;;5.10;93.80;;;;;;5022878;28;20391;-46
2023/04/05 07:22:12;;;;;;;13.75;8.05;;;5.50;93.90;;;;;;5020693;28;20037;-45
2023/04/05 07:24:37;;;;;;;12.73;7.05;;;5.30;93.90;;;;;;5021045;28;20795;-46
2023/04/05 07:27:03;;;;;;;10.18;6.80;;;5.10;94.10;;;;;;5026702;28;20029;-47
2023/04/05 07:29:29;;;;;;;15.82;7.47;;;5.20;94.40;;;;;;5027207;28;20048;-46
2023/04/05 07:31:54;;;;;;;12.63;7.45;;;5.00;94.40;;;;;;5041694;28;20458;-46
2023/04/05 07:34:20;;;;;;;11.68;7.00;;;4.90;94.70;;;;;;5026432;28;20100;-45
2023/04/05 07:36:46;;;;;;;11.75;7.78;;;4.90;94.90;;;;;;5025244;28;20034;-45
2023/04/05 07:39:11;;;;;;;12.25;7.32;;;5.00;95.10;;;;;;4977590;28;20395;-46
2023/04/05 07:41:52;;;;;;;11.13;7.25;;;4.70;95.00;;;;;;4992006;28;20187;-52
2023/04/05 07:44:18;;;;;;;15.20;8.10;;;5.00;95.20;;;;;;5007881;28;20048;-46
2023/04/05 07:46:44;;;;;;;13.10;7.30;;;4.90;95.70;;;;;;5016791;28;20041;-45
2023/04/05 07:49:10;;;;;;;12.88;7.57;;;5.30;95.80;;;;;;5040809;28;20049;-45
2023/04/05 07:51:37;;;;;;;9.80;7.28;;;5.40;96.00;;;;;;5027273;28;20034;-46
2023/04/05 07:54:05;;;;;;;10.35;7.70;;;5.80;96.20;;;;;;5032442;28;20110;-46
2023/04/05 07:56:31;;;;;;;12.98;7.30;;;6.80;96.30;;;;;;5027427;28;20044;-44
2023/04/05 07:59:00;;;;;;;12.05;7.30;;;8.10;96.20;;;;;;5027654;28;20041;-44
2023/04/05 08:01:26;;;;;;;15.13;7.90;;;7.90;95.50;;;;;;5027363;28;20099;-44
2023/04/05 08:03:53;;;;;;;12.05;7.57;;;7.90;94.90;;;;;;5025584;28;20494;-44
2023/04/05 08:06:19;;;;;;;10.77;7.18;;;7.80;94.80;;;;;;5026161;28;20080;-45
2023/04/05 08:08:45;;;;;;;12.18;7.38;;;7.90;93.70;;;;;;5027101;28;20045;-45
2023/04/05 08:11:12;;;;;;;13.40;6.68;;;8.70;93.40;;;;;;5026395;28;20642;-44
2023/04/05 08:13:40;;;;;;;10.40;6.20;;;8.80;92.80;;;;;;5026035;28;20124;-45
2023/04/05 08:16:07;;;;;;;10.32;6.80;;;8.80;92.50;;;;;;5024628;28;20045;-45
2023/04/05 08:18:33;;;;;;;12.80;6.18;;;8.90;92.20;;;;;;5026478;28;20061;-46
2023/04/05 08:20:59;;;;;;;10.00;6.38;;;9.00;91.60;;;;;;5026389;28;20092;-45
2023/04/05 08:23:25;;;;;;;9.85;6.28;;;10.20;94.50;;;;;;5025760;28;20056;-46
2023/04/05 08:25:52;;;;;;;13.25;6.60;;;10.80;90.70;;;;;;5026041;28;20128;-47
2023/04/05 08:28:17;;;;;;;10.93;6.70;;;12.90;89.70;;;;;;5025903;28;20093;-45
2023/04/05 08:30:44;;;;;;;8.82;6.30;;;13.80;87.30;;;;;;5025834;28;20142;-46
2023/04/05 08:33:09;;;;;;;10.63;5.45;;;15.40;82.90;;;;;;5025040;28;20134;-44
2023/04/05 08:35:36;;;;;;;10.90;5.75;;;16.60;78.30;;;;;;5025680;28;20521;-45
2023/04/05 08:38:02;;;;;;;8.85;5.32;;;17.50;74.70;;;;;;5025418;28;20037;-45
2023/04/05 08:40:40;;;;;;;7.47;4.90;;;18.40;71.80;;;;;;5025913;28;20045;-46
2023/04/05 08:43:22;;;;;;;7.72;4.75;;;18.80;69.70;;;;;;5025692;28;20679;-45
2023/04/05 08:45:51;;;;;;;8.88;4.88;;;19.80;67.40;;;;;;5026060;28;20175;-46
2023/04/05 08:48:18;;;;;;;6.85;4.20;;;20.60;64.00;;;;;;5025660;28;20045;-46
2023/04/05 08:50:52;;;;;;;6.57;4.55;;;21.60;61.70;;;;;;5024856;28;20149;-45
2023/04/05 08:53:18;;;;;;;6.95;4.20;;;22.20;57.00;;;;;;5025810;28;20045;-44
2023/04/05 08:55:52;;;;;;;6.78;4.60;;;22.30;55.60;;;;;;5025512;28;20041;-47
2023/04/05 08:58:23;;;;;;;8.32;3.47;;;22.30;53.50;;;;;;5025535;28;20579;-45
2023/04/05 09:00:50;;;;;;;7.93;3.50;;;22.40;53.00;;;;;;5026078;28;20041;-45
2023/04/05 09:03:26;;;;;;;5.45;3.63;;;21.70;52.10;;;;;;5020513;28;20056;-46
2023/04/05 09:05:52;;;;;;;5.57;3.00;;;21.20;52.80;;;;;;5025688;28;20045;-46
2023/04/05 09:08:21;;;;;;;4.15;2.53;;;20.50;53.50;;;;;;5025913;28;20059;-46
2023/04/05 09:10:51;;;;;;;6.97;3.05;;;20.70;54.20;;;;;;5025814;28;20546;-45
2023/04/05 09:13:17;;;;;;;5.30;3.05;;;21.40;52.30;;;;;;5025081;28;20049;-45
2023/04/05 09:15:43;;;;;;;4.82;2.45;;;21.60;51.30;;;;;;5025415;28;20091;-45
2023/04/05 09:18:09;;;;;;;6.35;2.70;;;21.30;50.20;;;;;;5023943;28;20530;-45
2023/04/05 09:20:34;;;;;;;3.58;2.63;;;21.60;49.60;;;;;;5025389;28;20533;-49
2023/04/05 09:23:00;;;;;;;5.90;2.30;;;22.30;49.30;;;;;;5025394;28;20570;-44
2023/04/05 09:25:39;;;;;;;4.03;2.28;;;23.00;47.60;;;;;;5024107;28;20423;-45
2023/04/05 09:28:09;;;;;;;3.72;1.80;;;23.50;45.60;;;;;;5025403;28;20468;-46
2023/04/05 09:30:36;;;;;;;4.05;2.55;;;22.30;44.00;;;;;;5025219;28;20176;-44
2023/04/05 09:33:03;;;;;;;4.25;1.73;;;23.70;44.00;;;;;;5025384;28;20065;-46
2023/04/05 09:35:32;;;;;;;5.07;2.53;;;23.80;45.20;;;;;;5024831;28;20152;-45
2023/04/05 09:38:00;;;;;;;3.75;2.20;;;23.80;44.20;;;;;;5025080;28;20033;-45
2023/04/05 09:40:46;;;;;;;2.97;1.00;;;23.40;43.10;;;;;;5024560;28;20056;-45
2023/04/05 09:43:13;;;;;;;4.22;1.52;;;22.90;42.40;;;;;;5024496;28;20041;-47
2023/04/05 09:45:41;;;;;;;3.30;1.52;;;22.60;43.00;;;;;;5024863;28;20049;-46
2023/04/05 09:48:08;;;;;;;3.60;1.30;;;22.40;43.50;;;;;;5025266;28;20041;-45
2023/04/05 09:50:34;;;;;;;3.60;1.60;;;22.20;44.20;;;;;;5025106;28;20752;-46
2023/04/05 09:53:08;;;;;;;4.30;2.10;;;22.10;44.00;;;;;;5024936;28;20045;-45
2023/04/05 09:55:34;;;;;;;3.60;1.95;;;21.80;43.10;;;;;;5023507;28;20064;-44
2023/04/05 09:58:01;;;;;;;4.40;2.60;;;21.20;44.50;;;;;;5024540;28;20049;-45
2023/04/05 10:00:32;;;;;;;5.13;2.70;;;20.30;45.70;;;;;;5024341;28;20049;-45
2023/04/05 10:02:57;;;;;;;4.10;2.20;;;19.50;46.50;;;;;;5024710;28;20045;-46
2023/04/05 10:05:26;;;;;;;4.35;2.65;;;18.80;47.30;;;;;;5024289;28;20280;-46
2023/04/05 10:07:52;;;;;;;7.95;2.85;;;18.90;47.10;;;;;;5024706;28;20161;-46
2023/04/05 10:10:20;;;;;;;4.18;2.40;;;18.90;46.80;;;;;;5017185;28;20046;-47
2023/04/05 10:12:48;;;;;;;4.68;2.42;;;18.30;51.20;;;;;;5024755;28;20049;-45
2023/04/05 10:15:15;;;;;;;7.90;2.70;;;17.50;46.60;;;;;;5025137;28;20047;-44
2023/04/05 10:17:51;;;;;;;4.32;2.55;;;17.50;48.20;;;;;;5024481;28;20042;-45
2023/04/05 10:20:24;;;;;;;3.72;2.30;;;18.20;47.00;;;;;;5024552;28;20038;-47
2023/04/05 10:22:58;;;;;;;6.20;2.38;;;19.10;47.10;;;;;;5024824;28;20046;-45
2023/04/05 10:25:33;;;;;;;3.42;2.22;;;19.90;45.30;;;;;;5023572;28;20045;-45
2023/04/05 10:28:11;;;;;;;4.10;2.40;;;20.10;44.00;;;;;;5024673;28;20050;-45
2023/04/05 10:30:45;;;;;;;4.75;2.22;;;19.60;43.70;;;;;;5028556;28;20037;-47
2023/04/05 10:33:24;;;;;;;4.03;2.50;;;19.60;45.60;;;;;;5028407;28;20049;-45
2023/04/05 10:35:56;;;;;;;2.70;1.60;;;20.00;45.40;;;;;;5028510;28;20056;-46
2023/04/05 10:38:26;;;;;;;4.68;2.92;;;20.20;45.10;;;;;;5027996;28;20076;-44
2023/04/05 10:41:15;;;;;;;3.15;1.88;;;20.40;44.20;;;;;;5028019;28;20073;-46
2023/04/05 10:43:42;;;;;;;4.47;2.22;;;20.00;43.00;;;;;;5028025;28;20052;-45
2023/04/05 10:46:10;;;;;;;4.80;2.65;;;18.90;42.50;;;;;;5028096;28;20042;-45
2023/04/05 10:48:53;;;;;;;4.07;2.13;;;18.10;42.90;;;;;;5027404;28;20468;-45
2023/04/05 10:51:22;;;;;;;6.28;2.65;;;17.40;45.00;;;;;;5028236;28;20467;-46
2023/04/05 10:53:50;;;;;;;4.45;2.10;;;16.70;46.00;;;;;;5024458;28;20251;-45
2023/04/05 10:56:16;;;;;;;7.30;2.97;;;16.30;47.00;;;;;;5035564;28;20085;-45
2023/04/05 10:58:44;;;;;;;4.40;2.05;;;16.00;47.50;;;;;;5027399;28;20049;-45
2023/04/05 11:01:11;;;;;;;4.85;2.50;;;15.40;49.70;;;;;;5042501;28;20053;-45
2023/04/05 11:03:47;;;;;;;4.90;2.65;;;14.90;47.70;;;;;;5026969;28;20075;-47
2023/04/05 11:06:28;;;;;;;4.05;2.30;;;14.70;49.00;;;;;;5024824;28;20564;-49
2023/04/05 11:09:17;;;;;;;5.30;2.60;;;14.50;49.50;;;;;;5020682;28;20488;-45
2023/04/05 11:11:48;;;;;;;5.22;1.90;;;14.50;49.20;;;;;;5025588;28;20152;-45
2023/04/05 11:14:34;;;;;;;4.95;2.30;;;14.30;50.20;;;;;;5021261;28;20147;-46
2023/04/05 11:17:00;;;;;;;5.63;2.38;;;14.20;49.90;;;;;;5020803;28;20041;-45
2023/04/05 11:20:04;;;;;;;3.65;2.00;;;14.00;50.10;;;;;;5023296;28;20033;-45
2023/04/05 11:22:30;;;;;;;5.28;2.55;;;13.80;50.00;;;;;;4994998;28;20064;-44
2023/04/05 11:24:58;;;;;;;4.90;2.10;;;13.70;50.90;;;;;;5007743;28;20045;-51
2023/04/05 11:27:28;;;;;;;5.22;2.60;;;13.40;50.50;;;;;;4992622;28;21034;-55
2023/04/05 11:29:55;;;;;;;5.05;2.25;;;13.20;51.60;;;;;;5002567;28;20072;-52
2023/04/05 11:32:21;;;;;;;5.53;2.33;;;12.90;51.70;;;;;;5009998;28;20470;-52
2023/04/05 11:35:07;;;;;;;4.65;2.15;;;12.80;52.10;;;;;;5015660;28;20052;-52
2023/04/05 11:38:07;;;;;;;7.38;2.47;;;12.80;52.50;;;;;;5007197;28;20029;-55
2023/04/05 11:40:39;;;;;;;4.47;2.30;;;12.70;53.30;;;;;;5012351;28;20038;-56
2023/04/05 11:43:10;;;;;;;5.88;2.70;;;12.60;53.00;;;;;;5009247;28;20742;-48
2023/04/05 11:45:37;;;;;;;7.18;2.75;;;12.50;53.80;;;;;;5022235;28;20052;-48
2023/04/05 11:48:11;;;;;;;6.20;2.20;;;12.40;52.90;;;;;;5025787;28;20451;-49
2023/04/05 11:50:37;;;;;;;6.30;2.83;;;12.30;52.00;;;;;;5026200;28;20045;-48
2023/04/05 11:53:12;;;;;;;3.53;2.28;;;11.80;50.90;;;;;;5026587;28;20120;-49
2023/04/05 11:55:39;;;;;;;4.22;2.38;;;11.70;51.10;;;;;;5024052;28;20049;-49
2023/04/05 11:58:17;;;;;;;5.00;2.75;;;11.50;51.50;;;;;;5021511;28;20077;-48
2023/04/05 12:00:44;;;;;;;3.75;1.95;;;11.30;51.30;;;;;;5020884;28;20180;-51
2023/04/05 12:03:14;;;;;;;4.38;2.72;;;11.40;52.50;;;;;;5026757;28;20073;-48
2023/04/05 12:05:54;;;;;;;6.30;2.55;;;11.40;52.90;;;;;;5020402;28;20041;-49
2023/04/05 12:08:21;;;;;;;5.43;2.33;;;11.40;54.00;;;;;;5026983;28;20041;-50
2023/04/05 12:10:54;;;;;;;5.85;2.88;;;11.40;53.60;;;;;;5024617;28;20052;-51
2023/04/05 12:13:28;;;;;;;3.95;2.40;;;11.40;53.70;;;;;;5023270;28;20049;-49
2023/04/05 12:15:56;;;;;;;5.90;2.80;;;11.10;52.40;;;;;;5025665;28;20107;-50
2023/04/05 12:18:27;;;;;;;5.95;2.42;;;11.40;53.00;;;;;;5025800;28;20442;-49
2023/04/05 12:20:54;;;;;;;5.83;2.33;;;11.40;53.40;;;;;;5025779;28;20076;-49
2023/04/05 12:23:21;;;;;;;4.20;2.60;;;10.70;53.60;;;;;;5024235;28;20580;-49
2023/04/05 12:25:52;;;;;;;6.43;2.53;;;10.70;53.60;;;;;;5024880;28;20096;-50
2023/04/05 12:28:17;;;;;;;3.55;2.15;;;11.00;54.30;;;;;;5020386;28;20037;-49
2023/04/05 12:30:52;;;;;;;3.95;2.25;;;11.30;54.40;;;;;;5019944;28;20064;-48
2023/04/05 12:33:32;;;;;;;5.13;2.60;;;10.90;54.00;;;;;;5023888;28;20152;-53
2023/04/05 12:36:04;;;;;;;6.10;2.40;;;10.90;53.60;;;;;;5022519;28;20037;-49
2023/04/05 12:38:30;;;;;;;5.90;2.80;;;10.90;54.00;;;;;;5021244;28;20070;-51
2023/04/05 12:41:02;;;;;;;5.95;2.78;;;11.00;54.20;;;;;;5025715;28;20041;-49
2023/04/05 12:43:42;;;;;;;4.88;2.63;;;10.90;55.40;;;;;;5025842;28;20435;-50
2023/04/05 12:46:15;;;;;;;5.85;3.20;;;10.90;53.90;;;;;;5021722;28;20037;-49
2023/04/05 12:48:41;;;;;;;5.32;2.20;;;10.90;54.40;;;;;;5025364;28;20360;-49
2023/04/05 12:51:16;;;;;;;4.60;2.53;;;11.40;55.10;;;;;;5025546;28;20072;-49